Progress Software Price to Sales Ratio 2010-2024 | PRGS

Historical PS ratio values for Progress Software (PRGS) over the last 10 years. The current P/S ratio for Progress Software as of May 20, 2024 is . For more information on how our historical price data is adjusted see the Stock Price Adjustment Guide.
Progress Software P/S Ratio Historical Data
Date Stock Price TTM Sales per Share Price to Sales Ratio
2024-05-20 51.64 3.23
2024-02-29 53.36 $15.98 3.34
2023-11-30 53.68 $15.56 3.45
2023-08-31 60.44 $15.15 3.99
2023-05-31 59.44 $14.70 4.04
2023-02-28 56.74 $14.06 4.04
2022-11-30 52.51 $13.60 3.86
2022-08-31 47.24 $13.19 3.58
2022-05-31 47.25 $13.06 3.62
2022-02-28 42.95 $12.45 3.45
2021-11-30 47.03 $11.92 3.94
2021-08-31 45.03 $11.48 3.92
2021-05-31 42.94 $10.59 4.06
2021-02-28 40.83 $10.05 4.06
2020-11-30 38.33 $9.75 3.93
2020-08-31 36.06 $9.63 3.75
2020-05-31 38.28 $9.56 4.00
2020-02-29 35.19 $9.55 3.68
2019-11-30 39.47 $9.12 4.33
2019-08-31 35.36 $8.67 4.08
2019-05-31 38.18 $8.34 4.58
2019-02-28 34.15 $8.15 4.19
2018-11-30 32.51 $8.18 3.97
2018-08-31 37.68 $8.28 4.55
2018-05-31 34.75 $8.26 4.21
2018-02-28 42.84 $8.16 5.25
2017-11-30 37.67 $8.02 4.70
2017-08-31 30.50 $8.18 3.73
2017-05-31 26.42 $8.24 3.20
2017-02-28 25.84 $8.23 3.14
2016-11-30 26.53 $8.10 3.27
2016-08-31 25.92 $7.96 3.26
2016-05-31 23.52 $7.77 3.03
2016-02-29 22.53 $7.60 2.96
2015-11-30 21.43 $7.47 2.87
2015-08-31 24.20 $7.14 3.39
2015-05-31 23.52 $6.80 3.46
2015-02-28 24.42 $6.63 3.68
2014-11-30 23.04 $6.67 3.46
2014-08-31 20.69 $6.19 3.34
2014-05-31 19.40 $6.10 3.18
2013-11-30 23.53 $5.96 3.95
2013-08-31 21.85 $5.60 3.90
2013-05-31 21.00 $5.60 3.75
2013-02-28 20.12 $5.30 3.80
2012-11-30 17.97 $5.05 3.56
2014-02-28 22.28 $5.15 4.33
2012-08-31 17.18 $5.18 3.32
2012-05-31 17.17 $5.87 2.93
2012-02-29 20.74 $6.64 3.12
2011-11-30 18.20 $7.18 2.53
2011-08-31 18.60 $7.86 2.37
2011-05-31 24.18 $7.94 3.04
2011-02-28 26.23 $7.92 3.31
2010-11-30 22.94 $8.07 2.84
2010-08-31 15.91 $8.15 1.95
2010-05-31 19.02 $8.15 2.34
2010-02-28 16.69 $8.14 2.05
2009-11-30 14.34 $8.06 1.78
Sector Industry Market Cap Revenue
Computer and Technology Computer Software $2.222B $0.694B
Progress offers the leading platform for developing and deploying mission-critical business applications. Progress empowers enterprises and ISVs to build and deliver cognitive-first applications that harness big data to derive business insights and competitive advantage. Progress offers leading technologies for easily building powerful user interfaces across any type of device, a reliable, scalable and secure backend platform to deploy modern applications, leading data connectivity to all sources, and award-winning predictive analytics that brings the power of machine learning to any organization.
Stock Name Country Market Cap PE Ratio
Microsoft (MSFT) United States $3123.129B 36.38
Oracle (ORCL) United States $339.440B 27.63
Salesforce (CRM) United States $276.470B 46.22
Adobe (ADBE) United States $216.577B 36.21
Intuit (INTU) United States $185.130B 62.08
Synopsys (SNPS) United States $86.426B 62.35
Cadence Design Systems (CDNS) United States $78.595B 74.82
Dassault Systemes SA (DASTY) France $54.943B 35.70
Autodesk (ADSK) United States $47.666B 46.57
ANSYS (ANSS) United States $28.609B 52.94
MicroStrategy (MSTR) United States $28.105B 0.00
PTC (PTC) United States $22.051B 58.48
SS&C Technologies Holdings (SSNC) United States $15.759B 14.92
Manhattan Associates (MANH) United States $14.086B 74.76
Descartes Systems Group (DSGX) Canada $8.355B 73.13
Open Text (OTEX) Canada $8.317B 8.37
Trend Micro (TMICY) Japan $6.733B 48.76
Pegasystems (PEGA) United States $5.347B 47.28
CommVault Systems (CVLT) United States $4.828B 78.89
Blackbaud (BLKB) United States $4.094B 35.24
ACI Worldwide (ACIW) United States $3.985B 18.94
Verint Systems (VRNT) United States $2.002B 18.66
Sapiens (SPNS) Israel $1.922B 26.20
BlackBerry (BB) Canada $1.735B 0.00
PROS Holdings (PRO) United States $1.479B 0.00
Simulations Plus (SLP) United States $1.018B 74.93
Rand Worldwide (RWWI) United States $0.647B 0.00
Magic Software Enterprises (MGIC) Israel $0.583B 12.38
American Software (AMSWA) United States $0.347B 29.03
Canaan (CAN) China $0.245B 0.00
OptimizeRx (OPRX) United States $0.232B 0.00
Rigetti Computing (RGTI) United States $0.183B 0.00
Icad Inc (ICAD) United States $0.046B 0.00
Neonode (NEON) Sweden $0.034B 0.00
NetSol Technologies (NTWK) United States $0.030B 0.00
Wetouch Technology (WETH) $0.027B 0.00
Smith Micro Software (SMSI) United States $0.026B 0.00
Hanryu Holdings (HRYU) South Korea $0.022B 0.00
GSE Systems (GVP) United States $0.010B 0.00
SAP SE (SAP) Germany $0.000B 49.31